sensor_id;sensor_type;location;lat;lon;timestamp;P1;durP1;ratioP1;P2;durP2;ratioP2
46561;SDS011;32289;42.688;23.330;2024-03-25T00:03:15;2.28;;;0.50;;
46561;SDS011;32289;42.688;23.330;2024-03-25T00:06:56;0.68;;;0.30;;
46561;SDS011;32289;42.688;23.330;2024-03-25T00:10:38;1.35;;;0.50;;
46561;SDS011;32289;42.688;23.330;2024-03-25T00:14:19;1.95;;;0.50;;
46561;SDS011;32289;42.688;23.330;2024-03-25T00:18:03;1.30;;;0.55;;
46561;SDS011;32289;42.688;23.330;2024-03-25T00:21:44;0.82;;;0.40;;
46561;SDS011;32289;42.688;23.330;2024-03-25T00:25:25;1.15;;;0.47;;
46561;SDS011;32289;42.688;23.330;2024-03-25T00:29:06;0.30;;;0.30;;
46561;SDS011;32289;42.688;23.330;2024-03-25T00:32:47;0.98;;;0.47;;
46561;SDS011;32289;42.688;23.330;2024-03-25T00:36:27;0.95;;;0.40;;
46561;SDS011;32289;42.688;23.330;2024-03-25T00:40:08;1.08;;;0.50;;
46561;SDS011;32289;42.688;23.330;2024-03-25T00:43:49;1.17;;;0.50;;
46561;SDS011;32289;42.688;23.330;2024-03-25T00:47:30;0.73;;;0.30;;
46561;SDS011;32289;42.688;23.330;2024-03-25T00:51:10;1.83;;;0.60;;
46561;SDS011;32289;42.688;23.330;2024-03-25T00:54:51;1.13;;;0.50;;
46561;SDS011;32289;42.688;23.330;2024-03-25T00:58:32;0.70;;;0.30;;
46561;SDS011;32289;42.688;23.330;2024-03-25T01:02:12;0.45;;;0.30;;
46561;SDS011;32289;42.688;23.330;2024-03-25T01:05:53;0.30;;;0.20;;
46561;SDS011;32289;42.688;23.330;2024-03-25T01:09:34;0.20;;;0.20;;
46561;SDS011;32289;42.688;23.330;2024-03-25T01:13:15;0.98;;;0.30;;
46561;SDS011;32289;42.688;23.330;2024-03-25T01:16:55;0.20;;;0.20;;
46561;SDS011;32289;42.688;23.330;2024-03-25T01:20:36;0.22;;;0.22;;
46561;SDS011;32289;42.688;23.330;2024-03-25T01:24:17;0.20;;;0.20;;
46561;SDS011;32289;42.688;23.330;2024-03-25T01:27:58;0.65;;;0.20;;
46561;SDS011;32289;42.688;23.330;2024-03-25T01:31:38;0.30;;;0.30;;
46561;SDS011;32289;42.688;23.330;2024-03-25T01:35:19;1.42;;;0.20;;
46561;SDS011;32289;42.688;23.330;2024-03-25T01:39:00;0.20;;;0.20;;
46561;SDS011;32289;42.688;23.330;2024-03-25T01:42:41;0.43;;;0.30;;
46561;SDS011;32289;42.688;23.330;2024-03-25T01:46:21;0.50;;;0.30;;
46561;SDS011;32289;42.688;23.330;2024-03-25T01:50:02;0.52;;;0.30;;
46561;SDS011;32289;42.688;23.330;2024-03-25T01:53:44;0.43;;;0.20;;
46561;SDS011;32289;42.688;23.330;2024-03-25T01:57:26;0.47;;;0.30;;
46561;SDS011;32289;42.688;23.330;2024-03-25T02:01:07;0.13;;;0.13;;
46561;SDS011;32289;42.688;23.330;2024-03-25T02:04:50;1.25;;;0.40;;
46561;SDS011;32289;42.688;23.330;2024-03-25T02:08:32;0.10;;;0.10;;
46561;SDS011;32289;42.688;23.330;2024-03-25T02:12:14;0.28;;;0.20;;
46561;SDS011;32289;42.688;23.330;2024-03-25T02:15:55;1.17;;;0.30;;
46561;SDS011;32289;42.688;23.330;2024-03-25T02:19:37;0.10;;;0.10;;
46561;SDS011;32289;42.688;23.330;2024-03-25T02:23:19;1.10;;;0.25;;
46561;SDS011;32289;42.688;23.330;2024-03-25T02:26:59;0.50;;;0.30;;
46561;SDS011;32289;42.688;23.330;2024-03-25T02:30:40;0.93;;;0.30;;
46561;SDS011;32289;42.688;23.330;2024-03-25T02:34:21;0.25;;;0.20;;
46561;SDS011;32289;42.688;23.330;2024-03-25T02:38:02;0.30;;;0.30;;
46561;SDS011;32289;42.688;23.330;2024-03-25T02:41:43;0.55;;;0.38;;
46561;SDS011;32289;42.688;23.330;2024-03-25T02:45:24;0.10;;;0.10;;
46561;SDS011;32289;42.688;23.330;2024-03-25T02:49:05;0.95;;;0.30;;
46561;SDS011;32289;42.688;23.330;2024-03-25T02:52:46;0.43;;;0.32;;
46561;SDS011;32289;42.688;23.330;2024-03-25T02:56:26;0.45;;;0.20;;
46561;SDS011;32289;42.688;23.330;2024-03-25T03:00:07;1.45;;;0.32;;
46561;SDS011;32289;42.688;23.330;2024-03-25T03:03:49;0.20;;;0.20;;
46561;SDS011;32289;42.688;23.330;2024-03-25T03:07:29;0.20;;;0.20;;
46561;SDS011;32289;42.688;23.330;2024-03-25T03:11:10;0.38;;;0.30;;
46561;SDS011;32289;42.688;23.330;2024-03-25T03:14:51;1.33;;;0.50;;
46561;SDS011;32289;42.688;23.330;2024-03-25T03:18:32;0.75;;;0.45;;
46561;SDS011;32289;42.688;23.330;2024-03-25T03:22:12;1.02;;;0.52;;
46561;SDS011;32289;42.688;23.330;2024-03-25T03:25:53;1.10;;;0.50;;
46561;SDS011;32289;42.688;23.330;2024-03-25T03:29:34;1.65;;;0.50;;
46561;SDS011;32289;42.688;23.330;2024-03-25T03:33:15;2.17;;;0.50;;
46561;SDS011;32289;42.688;23.330;2024-03-25T03:36:57;1.10;;;0.50;;
46561;SDS011;32289;42.688;23.330;2024-03-25T03:40:37;1.08;;;0.50;;
46561;SDS011;32289;42.688;23.330;2024-03-25T03:44:18;1.75;;;0.60;;
46561;SDS011;32289;42.688;23.330;2024-03-25T03:47:59;1.23;;;0.65;;
46561;SDS011;32289;42.688;23.330;2024-03-25T03:51:39;0.70;;;0.43;;
46561;SDS011;32289;42.688;23.330;2024-03-25T03:55:20;0.60;;;0.35;;
46561;SDS011;32289;42.688;23.330;2024-03-25T03:59:01;1.38;;;0.70;;
46561;SDS011;32289;42.688;23.330;2024-03-25T04:02:41;1.58;;;0.70;;
46561;SDS011;32289;42.688;23.330;2024-03-25T04:06:22;1.40;;;0.80;;
46561;SDS011;32289;42.688;23.330;2024-03-25T04:10:03;1.67;;;0.68;;
46561;SDS011;32289;42.688;23.330;2024-03-25T04:13:46;1.25;;;0.77;;
46561;SDS011;32289;42.688;23.330;2024-03-25T04:17:27;1.80;;;0.90;;
46561;SDS011;32289;42.688;23.330;2024-03-25T04:21:11;2.42;;;1.10;;
46561;SDS011;32289;42.688;23.330;2024-03-25T04:24:52;3.33;;;1.05;;
46561;SDS011;32289;42.688;23.330;2024-03-25T04:28:32;2.58;;;1.23;;
46561;SDS011;32289;42.688;23.330;2024-03-25T04:32:13;2.08;;;0.90;;
46561;SDS011;32289;42.688;23.330;2024-03-25T04:35:54;3.78;;;1.38;;
46561;SDS011;32289;42.688;23.330;2024-03-25T04:39:35;3.05;;;1.60;;
46561;SDS011;32289;42.688;23.330;2024-03-25T04:43:15;3.28;;;1.85;;
46561;SDS011;32289;42.688;23.330;2024-03-25T04:46:56;3.25;;;1.70;;
46561;SDS011;32289;42.688;23.330;2024-03-25T04:50:37;5.85;;;1.85;;
46561;SDS011;32289;42.688;23.330;2024-03-25T04:54:17;5.50;;;2.47;;
46561;SDS011;32289;42.688;23.330;2024-03-25T04:57:58;8.35;;;3.17;;
46561;SDS011;32289;42.688;23.330;2024-03-25T05:01:39;9.98;;;2.30;;
46561;SDS011;32289;42.688;23.330;2024-03-25T05:05:19;7.45;;;2.72;;
46561;SDS011;32289;42.688;23.330;2024-03-25T05:09:00;4.63;;;1.95;;
46561;SDS011;32289;42.688;23.330;2024-03-25T05:12:41;5.95;;;3.10;;
46561;SDS011;32289;42.688;23.330;2024-03-25T05:16:24;5.43;;;2.88;;
46561;SDS011;32289;42.688;23.330;2024-03-25T05:20:04;8.68;;;2.72;;
46561;SDS011;32289;42.688;23.330;2024-03-25T05:23:45;7.25;;;2.85;;
46561;SDS011;32289;42.688;23.330;2024-03-25T05:27:26;5.47;;;3.00;;
46561;SDS011;32289;42.688;23.330;2024-03-25T05:31:07;7.38;;;3.80;;
46561;SDS011;32289;42.688;23.330;2024-03-25T05:34:49;6.60;;;2.95;;
46561;SDS011;32289;42.688;23.330;2024-03-25T05:38:29;6.82;;;3.60;;
46561;SDS011;32289;42.688;23.330;2024-03-25T05:42:11;7.55;;;4.00;;
46561;SDS011;32289;42.688;23.330;2024-03-25T05:45:54;7.25;;;3.40;;
46561;SDS011;32289;42.688;23.330;2024-03-25T05:49:35;11.88;;;4.53;;
46561;SDS011;32289;42.688;23.330;2024-03-25T05:53:16;7.60;;;3.45;;
46561;SDS011;32289;42.688;23.330;2024-03-25T05:56:57;9.93;;;3.80;;
46561;SDS011;32289;42.688;23.330;2024-03-25T06:00:37;8.55;;;3.58;;
46561;SDS011;32289;42.688;23.330;2024-03-25T06:04:18;8.40;;;4.63;;
46561;SDS011;32289;42.688;23.330;2024-03-25T06:07:59;9.55;;;4.55;;
46561;SDS011;32289;42.688;23.330;2024-03-25T06:11:40;7.43;;;3.75;;
46561;SDS011;32289;42.688;23.330;2024-03-25T06:15:22;14.48;;;4.78;;
46561;SDS011;32289;42.688;23.330;2024-03-25T06:19:03;8.15;;;3.33;;
46561;SDS011;32289;42.688;23.330;2024-03-25T06:22:43;6.90;;;4.18;;
46561;SDS011;32289;42.688;23.330;2024-03-25T06:26:24;7.55;;;3.88;;
46561;SDS011;32289;42.688;23.330;2024-03-25T06:30:05;9.32;;;4.32;;
46561;SDS011;32289;42.688;23.330;2024-03-25T06:41:35;7.25;;;3.80;;
46561;SDS011;32289;42.688;23.330;2024-03-25T06:45:15;7.55;;;4.22;;
46561;SDS011;32289;42.688;23.330;2024-03-25T06:48:57;7.60;;;4.47;;
46561;SDS011;32289;42.688;23.330;2024-03-25T06:52:38;10.07;;;3.92;;
46561;SDS011;32289;42.688;23.330;2024-03-25T06:56:19;8.60;;;4.50;;
46561;SDS011;32289;42.688;23.330;2024-03-25T07:00:00;7.90;;;4.78;;
46561;SDS011;32289;42.688;23.330;2024-03-25T07:03:40;7.90;;;4.75;;
46561;SDS011;32289;42.688;23.330;2024-03-25T07:07:21;8.80;;;4.80;;
46561;SDS011;32289;42.688;23.330;2024-03-25T07:11:02;6.65;;;4.30;;
46561;SDS011;32289;42.688;23.330;2024-03-25T07:14:43;5.93;;;3.92;;
46561;SDS011;32289;42.688;23.330;2024-03-25T07:18:24;6.95;;;4.07;;
46561;SDS011;32289;42.688;23.330;2024-03-25T07:22:04;8.55;;;4.60;;
46561;SDS011;32289;42.688;23.330;2024-03-25T07:25:45;8.35;;;4.70;;
46561;SDS011;32289;42.688;23.330;2024-03-25T07:29:26;5.80;;;3.85;;
46561;SDS011;32289;42.688;23.330;2024-03-25T07:33:06;7.63;;;5.15;;
46561;SDS011;32289;42.688;23.330;2024-03-25T07:36:47;5.32;;;3.60;;
46561;SDS011;32289;42.688;23.330;2024-03-25T07:40:29;10.02;;;5.53;;
46561;SDS011;32289;42.688;23.330;2024-03-25T07:44:09;8.30;;;4.45;;
46561;SDS011;32289;42.688;23.330;2024-03-25T07:47:50;7.63;;;4.45;;
46561;SDS011;32289;42.688;23.330;2024-03-25T07:51:30;5.88;;;3.80;;
46561;SDS011;32289;42.688;23.330;2024-03-25T07:55:11;9.50;;;4.65;;
46561;SDS011;32289;42.688;23.330;2024-03-25T07:58:52;6.07;;;3.85;;
46561;SDS011;32289;42.688;23.330;2024-03-25T08:02:33;7.35;;;4.50;;
46561;SDS011;32289;42.688;23.330;2024-03-25T08:06:14;4.90;;;3.85;;
46561;SDS011;32289;42.688;23.330;2024-03-25T08:09:55;9.40;;;5.15;;
46561;SDS011;32289;42.688;23.330;2024-03-25T08:13:36;9.80;;;4.93;;
46561;SDS011;32289;42.688;23.330;2024-03-25T08:17:16;12.00;;;5.32;;
46561;SDS011;32289;42.688;23.330;2024-03-25T08:20:57;5.18;;;3.75;;
46561;SDS011;32289;42.688;23.330;2024-03-25T08:24:38;6.47;;;3.50;;
46561;SDS011;32289;42.688;23.330;2024-03-25T08:28:18;7.93;;;3.97;;
46561;SDS011;32289;42.688;23.330;2024-03-25T08:31:59;6.18;;;3.97;;
46561;SDS011;32289;42.688;23.330;2024-03-25T08:35:40;4.80;;;2.63;;
46561;SDS011;32289;42.688;23.330;2024-03-25T08:39:21;5.07;;;3.65;;
46561;SDS011;32289;42.688;23.330;2024-03-25T08:43:01;4.03;;;3.00;;
46561;SDS011;32289;42.688;23.330;2024-03-25T08:46:42;6.95;;;3.70;;
46561;SDS011;32289;42.688;23.330;2024-03-25T08:50:23;7.18;;;3.70;;
46561;SDS011;32289;42.688;23.330;2024-03-25T08:54:03;4.65;;;3.10;;
46561;SDS011;32289;42.688;23.330;2024-03-25T08:57:44;6.78;;;3.90;;
46561;SDS011;32289;42.688;23.330;2024-03-25T09:01:25;8.50;;;4.40;;
46561;SDS011;32289;42.688;23.330;2024-03-25T09:05:06;5.95;;;3.65;;
46561;SDS011;32289;42.688;23.330;2024-03-25T09:08:48;6.43;;;4.00;;
46561;SDS011;32289;42.688;23.330;2024-03-25T09:12:47;5.50;;;3.47;;
46561;SDS011;32289;42.688;23.330;2024-03-25T09:16:28;6.20;;;3.63;;
46561;SDS011;32289;42.688;23.330;2024-03-25T09:20:08;8.80;;;3.58;;
46561;SDS011;32289;42.688;23.330;2024-03-25T09:24:00;5.30;;;3.65;;
46561;SDS011;32289;42.688;23.330;2024-03-25T09:27:45;6.47;;;3.88;;
46561;SDS011;32289;42.688;23.330;2024-03-25T09:31:26;6.45;;;3.83;;
46561;SDS011;32289;42.688;23.330;2024-03-25T09:35:07;5.47;;;3.92;;
46561;SDS011;32289;42.688;23.330;2024-03-25T09:38:48;6.30;;;3.83;;
46561;SDS011;32289;42.688;23.330;2024-03-25T09:42:33;7.22;;;3.78;;
46561;SDS011;32289;42.688;23.330;2024-03-25T09:46:21;4.90;;;4.20;;
46561;SDS011;32289;42.688;23.330;2024-03-25T09:50:04;7.18;;;4.65;;
46561;SDS011;32289;42.688;23.330;2024-03-25T09:53:48;5.35;;;3.58;;
46561;SDS011;32289;42.688;23.330;2024-03-25T09:57:29;5.32;;;3.40;;
46561;SDS011;32289;42.688;23.330;2024-03-25T10:01:10;5.43;;;3.22;;
46561;SDS011;32289;42.688;23.330;2024-03-25T10:04:50;4.72;;;3.45;;
46561;SDS011;32289;42.688;23.330;2024-03-25T10:08:31;6.47;;;4.93;;
46561;SDS011;32289;42.688;23.330;2024-03-25T10:12:12;5.18;;;3.40;;
46561;SDS011;32289;42.688;23.330;2024-03-25T10:15:54;5.07;;;3.17;;
46561;SDS011;32289;42.688;23.330;2024-03-25T10:19:35;4.45;;;2.97;;
46561;SDS011;32289;42.688;23.330;2024-03-25T10:23:22;5.32;;;3.08;;
46561;SDS011;32289;42.688;23.330;2024-03-25T10:27:10;7.35;;;4.47;;
46561;SDS011;32289;42.688;23.330;2024-03-25T10:31:03;5.78;;;3.42;;
46561;SDS011;32289;42.688;23.330;2024-03-25T10:34:45;4.60;;;2.67;;
46561;SDS011;32289;42.688;23.330;2024-03-25T10:38:26;6.88;;;4.00;;
46561;SDS011;32289;42.688;23.330;2024-03-25T10:42:07;8.52;;;3.85;;
46561;SDS011;32289;42.688;23.330;2024-03-25T10:45:53;10.80;;;4.22;;
46561;SDS011;32289;42.688;23.330;2024-03-25T10:53:27;6.32;;;4.15;;
46561;SDS011;32289;42.688;23.330;2024-03-25T10:57:09;5.75;;;3.13;;
46561;SDS011;32289;42.688;23.330;2024-03-25T11:00:51;4.38;;;2.70;;
46561;SDS011;32289;42.688;23.330;2024-03-25T11:04:36;13.25;;;4.72;;
46561;SDS011;32289;42.688;23.330;2024-03-25T11:08:18;6.30;;;2.80;;
46561;SDS011;32289;42.688;23.330;2024-03-25T11:11:58;9.40;;;3.53;;
46561;SDS011;32289;42.688;23.330;2024-03-25T11:15:40;5.32;;;2.65;;
46561;SDS011;32289;42.688;23.330;2024-03-25T11:19:26;6.63;;;3.42;;
46561;SDS011;32289;42.688;23.330;2024-03-25T11:23:11;6.20;;;3.40;;
46561;SDS011;32289;42.688;23.330;2024-03-25T11:26:53;8.43;;;2.08;;
46561;SDS011;32289;42.688;23.330;2024-03-25T11:30:34;5.72;;;2.80;;
46561;SDS011;32289;42.688;23.330;2024-03-25T11:34:16;4.10;;;2.55;;
46561;SDS011;32289;42.688;23.330;2024-03-25T11:37:57;6.03;;;2.47;;
46561;SDS011;32289;42.688;23.330;2024-03-25T11:41:41;3.30;;;2.20;;
46561;SDS011;32289;42.688;23.330;2024-03-25T11:45:23;4.32;;;2.20;;
46561;SDS011;32289;42.688;23.330;2024-03-25T11:49:12;7.82;;;3.50;;
46561;SDS011;32289;42.688;23.330;2024-03-25T11:56:35;6.43;;;3.65;;
46561;SDS011;32289;42.688;23.330;2024-03-25T12:00:17;5.97;;;3.40;;
46561;SDS011;32289;42.688;23.330;2024-03-25T12:08:03;4.30;;;2.80;;
46561;SDS011;32289;42.688;23.330;2024-03-25T12:11:46;6.35;;;4.05;;
46561;SDS011;32289;42.688;23.330;2024-03-25T12:15:27;9.02;;;2.53;;
46561;SDS011;32289;42.688;23.330;2024-03-25T12:19:08;7.25;;;2.20;;
46561;SDS011;32289;42.688;23.330;2024-03-25T12:22:49;3.53;;;2.35;;
46561;SDS011;32289;42.688;23.330;2024-03-25T12:26:30;5.43;;;2.97;;
46561;SDS011;32289;42.688;23.330;2024-03-25T12:30:12;5.38;;;3.60;;
46561;SDS011;32289;42.688;23.330;2024-03-25T12:33:53;6.82;;;3.15;;
46561;SDS011;32289;42.688;23.330;2024-03-25T12:37:33;2.90;;;1.73;;
46561;SDS011;32289;42.688;23.330;2024-03-25T12:41:14;7.18;;;2.45;;
46561;SDS011;32289;42.688;23.330;2024-03-25T12:44:55;5.70;;;2.40;;
46561;SDS011;32289;42.688;23.330;2024-03-25T12:48:36;4.20;;;2.45;;
46561;SDS011;32289;42.688;23.330;2024-03-25T12:52:17;5.68;;;3.58;;
46561;SDS011;32289;42.688;23.330;2024-03-25T12:55:58;3.67;;;2.20;;
46561;SDS011;32289;42.688;23.330;2024-03-25T12:59:38;3.33;;;1.90;;
46561;SDS011;32289;42.688;23.330;2024-03-25T13:03:19;4.78;;;2.20;;
46561;SDS011;32289;42.688;23.330;2024-03-25T13:06:59;5.15;;;2.35;;
46561;SDS011;32289;42.688;23.330;2024-03-25T13:10:40;6.30;;;2.47;;
46561;SDS011;32289;42.688;23.330;2024-03-25T13:14:21;6.80;;;2.05;;
46561;SDS011;32289;42.688;23.330;2024-03-25T13:18:02;5.72;;;2.60;;
46561;SDS011;32289;42.688;23.330;2024-03-25T13:21:42;3.72;;;2.42;;
46561;SDS011;32289;42.688;23.330;2024-03-25T13:25:24;5.47;;;2.95;;
46561;SDS011;32289;42.688;23.330;2024-03-25T13:29:04;3.83;;;2.20;;
46561;SDS011;32289;42.688;23.330;2024-03-25T13:32:47;6.57;;;3.20;;
46561;SDS011;32289;42.688;23.330;2024-03-25T13:36:28;8.02;;;3.03;;
46561;SDS011;32289;42.688;23.330;2024-03-25T13:40:09;7.55;;;2.33;;
46561;SDS011;32289;42.688;23.330;2024-03-25T13:43:51;4.80;;;2.58;;
46561;SDS011;32289;42.688;23.330;2024-03-25T13:47:32;3.38;;;1.90;;
46561;SDS011;32289;42.688;23.330;2024-03-25T13:51:13;6.55;;;1.75;;
46561;SDS011;32289;42.688;23.330;2024-03-25T13:54:54;4.75;;;2.55;;
46561;SDS011;32289;42.688;23.330;2024-03-25T13:58:35;4.80;;;2.70;;
46561;SDS011;32289;42.688;23.330;2024-03-25T14:02:16;9.20;;;1.73;;
46561;SDS011;32289;42.688;23.330;2024-03-25T14:05:57;5.57;;;1.25;;
46561;SDS011;32289;42.688;23.330;2024-03-25T14:09:38;5.13;;;1.70;;
46561;SDS011;32289;42.688;23.330;2024-03-25T14:13:18;5.07;;;1.60;;
46561;SDS011;32289;42.688;23.330;2024-03-25T14:16:59;3.00;;;1.00;;
46561;SDS011;32289;42.688;23.330;2024-03-25T14:20:40;2.90;;;2.03;;
46561;SDS011;32289;42.688;23.330;2024-03-25T14:24:21;3.63;;;1.33;;
46561;SDS011;32289;42.688;23.330;2024-03-25T14:28:02;5.13;;;2.20;;
46561;SDS011;32289;42.688;23.330;2024-03-25T14:31:43;2.13;;;1.00;;
46561;SDS011;32289;42.688;23.330;2024-03-25T14:35:24;5.88;;;2.40;;
46561;SDS011;32289;42.688;23.330;2024-03-25T14:39:05;1.60;;;0.90;;
46561;SDS011;32289;42.688;23.330;2024-03-25T14:42:46;2.15;;;1.10;;
46561;SDS011;32289;42.688;23.330;2024-03-25T14:46:26;3.20;;;1.40;;
46561;SDS011;32289;42.688;23.330;2024-03-25T14:50:07;3.47;;;1.40;;
46561;SDS011;32289;42.688;23.330;2024-03-25T14:53:49;3.75;;;1.95;;
46561;SDS011;32289;42.688;23.330;2024-03-25T14:57:31;5.75;;;1.70;;
46561;SDS011;32289;42.688;23.330;2024-03-25T15:01:12;5.68;;;2.67;;
46561;SDS011;32289;42.688;23.330;2024-03-25T15:04:53;3.08;;;1.38;;
46561;SDS011;32289;42.688;23.330;2024-03-25T15:08:34;3.08;;;1.65;;
46561;SDS011;32289;42.688;23.330;2024-03-25T15:12:15;2.67;;;1.42;;
46561;SDS011;32289;42.688;23.330;2024-03-25T15:15:56;3.67;;;1.67;;
46561;SDS011;32289;42.688;23.330;2024-03-25T15:19:37;3.47;;;1.83;;
46561;SDS011;32289;42.688;23.330;2024-03-25T15:23:18;3.97;;;1.90;;
46561;SDS011;32289;42.688;23.330;2024-03-25T15:26:59;4.05;;;2.20;;
46561;SDS011;32289;42.688;23.330;2024-03-25T15:30:40;3.78;;;2.08;;
46561;SDS011;32289;42.688;23.330;2024-03-25T15:34:21;9.20;;;3.10;;
46561;SDS011;32289;42.688;23.330;2024-03-25T15:38:02;2.83;;;1.65;;
46561;SDS011;32289;42.688;23.330;2024-03-25T15:41:43;4.95;;;1.58;;
46561;SDS011;32289;42.688;23.330;2024-03-25T15:45:24;7.30;;;2.30;;
46561;SDS011;32289;42.688;23.330;2024-03-25T15:49:05;6.55;;;2.50;;
46561;SDS011;32289;42.688;23.330;2024-03-25T15:52:46;10.40;;;3.58;;
46561;SDS011;32289;42.688;23.330;2024-03-25T15:56:27;3.63;;;2.05;;
46561;SDS011;32289;42.688;23.330;2024-03-25T16:00:08;4.50;;;2.22;;
46561;SDS011;32289;42.688;23.330;2024-03-25T16:03:50;6.80;;;2.03;;
46561;SDS011;32289;42.688;23.330;2024-03-25T16:07:31;4.35;;;1.50;;
46561;SDS011;32289;42.688;23.330;2024-03-25T16:11:15;8.60;;;2.55;;
46561;SDS011;32289;42.688;23.330;2024-03-25T16:14:59;8.15;;;3.30;;
46561;SDS011;32289;42.688;23.330;2024-03-25T16:18:40;5.55;;;2.35;;
46561;SDS011;32289;42.688;23.330;2024-03-25T16:22:20;5.28;;;2.08;;
46561;SDS011;32289;42.688;23.330;2024-03-25T16:26:01;7.18;;;2.35;;
46561;SDS011;32289;42.688;23.330;2024-03-25T16:29:42;7.72;;;3.47;;
46561;SDS011;32289;42.688;23.330;2024-03-25T16:33:23;9.45;;;3.80;;
46561;SDS011;32289;42.688;23.330;2024-03-25T16:37:04;7.15;;;2.63;;
46561;SDS011;32289;42.688;23.330;2024-03-25T16:40:45;4.10;;;2.30;;
46561;SDS011;32289;42.688;23.330;2024-03-25T16:44:26;4.97;;;2.53;;
46561;SDS011;32289;42.688;23.330;2024-03-25T16:48:07;14.93;;;4.70;;
46561;SDS011;32289;42.688;23.330;2024-03-25T16:51:51;10.02;;;3.20;;
46561;SDS011;32289;42.688;23.330;2024-03-25T16:55:32;6.75;;;3.75;;
46561;SDS011;32289;42.688;23.330;2024-03-25T16:59:13;11.30;;;4.50;;
46561;SDS011;32289;42.688;23.330;2024-03-25T17:02:54;9.60;;;3.05;;
46561;SDS011;32289;42.688;23.330;2024-03-25T17:06:36;5.35;;;2.67;;
46561;SDS011;32289;42.688;23.330;2024-03-25T17:10:16;6.07;;;3.10;;
46561;SDS011;32289;42.688;23.330;2024-03-25T17:13:57;6.18;;;3.50;;
46561;SDS011;32289;42.688;23.330;2024-03-25T17:17:38;6.00;;;3.10;;
46561;SDS011;32289;42.688;23.330;2024-03-25T17:21:18;7.40;;;2.95;;
46561;SDS011;32289;42.688;23.330;2024-03-25T17:24:59;6.47;;;2.70;;
46561;SDS011;32289;42.688;23.330;2024-03-25T17:28:40;5.55;;;1.92;;
46561;SDS011;32289;42.688;23.330;2024-03-25T17:32:21;7.90;;;2.53;;
46561;SDS011;32289;42.688;23.330;2024-03-25T17:36:03;6.68;;;2.97;;
46561;SDS011;32289;42.688;23.330;2024-03-25T17:39:44;8.63;;;2.72;;
46561;SDS011;32289;42.688;23.330;2024-03-25T17:43:25;8.27;;;2.83;;
46561;SDS011;32289;42.688;23.330;2024-03-25T17:47:06;10.90;;;2.50;;
46561;SDS011;32289;42.688;23.330;2024-03-25T17:50:58;7.65;;;3.63;;
46561;SDS011;32289;42.688;23.330;2024-03-25T17:54:39;8.35;;;3.03;;
46561;SDS011;32289;42.688;23.330;2024-03-25T17:58:19;10.65;;;3.50;;
46561;SDS011;32289;42.688;23.330;2024-03-25T18:02:00;6.63;;;2.63;;
46561;SDS011;32289;42.688;23.330;2024-03-25T18:05:41;7.68;;;3.75;;
46561;SDS011;32289;42.688;23.330;2024-03-25T18:09:22;4.53;;;2.13;;
46561;SDS011;32289;42.688;23.330;2024-03-25T18:13:02;9.07;;;2.90;;
46561;SDS011;32289;42.688;23.330;2024-03-25T18:16:45;6.93;;;2.78;;
46561;SDS011;32289;42.688;23.330;2024-03-25T18:20:25;9.38;;;3.03;;
46561;SDS011;32289;42.688;23.330;2024-03-25T18:24:06;10.60;;;2.92;;
46561;SDS011;32289;42.688;23.330;2024-03-25T18:27:47;5.63;;;2.60;;
46561;SDS011;32289;42.688;23.330;2024-03-25T18:31:28;13.45;;;2.97;;
46561;SDS011;32289;42.688;23.330;2024-03-25T18:35:08;7.07;;;2.67;;
46561;SDS011;32289;42.688;23.330;2024-03-25T18:38:49;6.18;;;2.60;;
46561;SDS011;32289;42.688;23.330;2024-03-25T18:42:30;6.65;;;3.05;;
46561;SDS011;32289;42.688;23.330;2024-03-25T18:46:11;6.97;;;2.95;;
46561;SDS011;32289;42.688;23.330;2024-03-25T18:49:52;7.70;;;3.33;;
46561;SDS011;32289;42.688;23.330;2024-03-25T18:53:32;6.10;;;2.92;;
46561;SDS011;32289;42.688;23.330;2024-03-25T18:57:13;6.80;;;2.70;;
46561;SDS011;32289;42.688;23.330;2024-03-25T19:00:54;5.10;;;2.08;;
46561;SDS011;32289;42.688;23.330;2024-03-25T19:04:34;8.85;;;3.05;;
46561;SDS011;32289;42.688;23.330;2024-03-25T19:08:15;4.10;;;2.00;;
46561;SDS011;32289;42.688;23.330;2024-03-25T19:11:56;4.85;;;2.05;;
46561;SDS011;32289;42.688;23.330;2024-03-25T19:15:36;13.18;;;2.65;;
46561;SDS011;32289;42.688;23.330;2024-03-25T19:19:19;6.18;;;2.42;;
46561;SDS011;32289;42.688;23.330;2024-03-25T19:23:00;6.78;;;2.60;;
46561;SDS011;32289;42.688;23.330;2024-03-25T19:26:41;4.93;;;2.30;;
46561;SDS011;32289;42.688;23.330;2024-03-25T19:30:21;5.47;;;2.67;;
46561;SDS011;32289;42.688;23.330;2024-03-25T19:34:02;10.30;;;2.95;;
46561;SDS011;32289;42.688;23.330;2024-03-25T19:37:43;5.72;;;2.20;;
46561;SDS011;32289;42.688;23.330;2024-03-25T19:41:24;4.30;;;2.40;;
46561;SDS011;32289;42.688;23.330;2024-03-25T19:45:05;6.72;;;2.90;;
46561;SDS011;32289;42.688;23.330;2024-03-25T19:48:46;5.28;;;2.35;;
46561;SDS011;32289;42.688;23.330;2024-03-25T19:52:26;8.55;;;3.17;;
46561;SDS011;32289;42.688;23.330;2024-03-25T19:56:07;6.03;;;2.30;;
46561;SDS011;32289;42.688;23.330;2024-03-25T19:59:50;12.30;;;3.08;;
46561;SDS011;32289;42.688;23.330;2024-03-25T20:03:31;6.03;;;2.95;;
46561;SDS011;32289;42.688;23.330;2024-03-25T20:07:12;6.80;;;2.75;;
46561;SDS011;32289;42.688;23.330;2024-03-25T20:10:53;7.72;;;3.17;;
46561;SDS011;32289;42.688;23.330;2024-03-25T20:14:34;5.32;;;2.78;;
46561;SDS011;32289;42.688;23.330;2024-03-25T20:18:14;5.78;;;2.80;;
46561;SDS011;32289;42.688;23.330;2024-03-25T20:21:55;8.98;;;2.97;;
46561;SDS011;32289;42.688;23.330;2024-03-25T20:25:36;5.32;;;2.03;;
46561;SDS011;32289;42.688;23.330;2024-03-25T20:29:17;6.13;;;2.50;;
46561;SDS011;32289;42.688;23.330;2024-03-25T20:32:58;4.40;;;2.10;;
46561;SDS011;32289;42.688;23.330;2024-03-25T20:36:39;8.13;;;3.05;;
46561;SDS011;32289;42.688;23.330;2024-03-25T20:40:20;4.88;;;2.30;;
46561;SDS011;32289;42.688;23.330;2024-03-25T20:44:00;10.43;;;3.38;;
46561;SDS011;32289;42.688;23.330;2024-03-25T20:47:41;11.98;;;4.72;;
46561;SDS011;32289;42.688;23.330;2024-03-25T20:51:22;14.50;;;5.15;;
46561;SDS011;32289;42.688;23.330;2024-03-25T20:55:06;13.88;;;6.20;;
46561;SDS011;32289;42.688;23.330;2024-03-25T20:58:49;12.30;;;5.53;;
46561;SDS011;32289;42.688;23.330;2024-03-25T21:02:30;15.55;;;5.28;;
46561;SDS011;32289;42.688;23.330;2024-03-25T21:06:11;15.05;;;6.22;;
46561;SDS011;32289;42.688;23.330;2024-03-25T21:09:51;13.73;;;5.28;;
46561;SDS011;32289;42.688;23.330;2024-03-25T21:13:32;15.05;;;5.90;;
46561;SDS011;32289;42.688;23.330;2024-03-25T21:17:16;17.98;;;6.40;;
46561;SDS011;32289;42.688;23.330;2024-03-25T21:20:57;16.17;;;7.13;;
46561;SDS011;32289;42.688;23.330;2024-03-25T21:24:38;15.82;;;6.63;;
46561;SDS011;32289;42.688;23.330;2024-03-25T21:28:19;16.00;;;6.63;;
46561;SDS011;32289;42.688;23.330;2024-03-25T21:32:00;16.40;;;7.32;;
46561;SDS011;32289;42.688;23.330;2024-03-25T21:35:41;15.73;;;6.75;;
46561;SDS011;32289;42.688;23.330;2024-03-25T21:39:21;13.93;;;6.65;;
46561;SDS011;32289;42.688;23.330;2024-03-25T21:43:02;19.10;;;7.45;;
46561;SDS011;32289;42.688;23.330;2024-03-25T21:46:43;18.60;;;6.70;;
46561;SDS011;32289;42.688;23.330;2024-03-25T21:50:24;16.77;;;7.40;;
46561;SDS011;32289;42.688;23.330;2024-03-25T21:54:05;16.90;;;6.43;;
46561;SDS011;32289;42.688;23.330;2024-03-25T21:57:46;17.38;;;7.53;;
46561;SDS011;32289;42.688;23.330;2024-03-25T22:01:27;16.10;;;6.93;;
46561;SDS011;32289;42.688;23.330;2024-03-25T22:05:08;21.40;;;8.15;;
46561;SDS011;32289;42.688;23.330;2024-03-25T22:08:49;15.55;;;7.10;;
46561;SDS011;32289;42.688;23.330;2024-03-25T22:12:29;14.63;;;6.13;;